Terminal Aerodrome Forecast
Issued by NWS

Home | Current Version | Previous Version | Text Only | Print | Product List | Glossary On
Versions: 1 2 3 4 5 6 7 8 9 10 11 12 13 14 15
000
FTUS43 KIND 281120
TAFLAF
TAF
KLAF 281120Z 2812/0112 17007KT 6SM BR VCSH OVC020
     FM282100 20012G23KT 6SM BR VCTS OVC010CB
     FM010000 20011G22KT 5SM SHRA BR VCTS OVC015CB
     FM010200 21011G23KT P6SM SHRA VCTS OVC030CB
     FM010700 22012G26KT P6SM SHRA VCTS OVC070CB
      AMD LTD TO CLD VIS AND WIND TIL 281400=

USA.gov is the U.S. government's official web portal to all federal, state and local government web resources and services.